sensor_id;sensor_type;location;lat;lon;timestamp;temperature;humidity
52321;DHT22;38261;54.090;13.382;2023-03-14T00:00:56;11.50;99.90
52321;DHT22;38261;54.090;13.382;2023-03-14T00:02:18;11.50;99.90
52321;DHT22;38261;54.090;13.382;2023-03-14T00:03:41;11.40;99.90
52321;DHT22;38261;54.090;13.382;2023-03-14T00:05:04;11.40;99.90
52321;DHT22;38261;54.090;13.382;2023-03-14T00:06:28;11.40;99.90
52321;DHT22;38261;54.090;13.382;2023-03-14T00:07:50;11.40;99.90
52321;DHT22;38261;54.090;13.382;2023-03-14T00:09:13;11.30;99.90
52321;DHT22;38261;54.090;13.382;2023-03-14T00:10:36;11.30;99.90
52321;DHT22;38261;54.090;13.382;2023-03-14T00:11:58;11.30;99.90
52321;DHT22;38261;54.090;13.382;2023-03-14T00:13:21;11.30;99.90
52321;DHT22;38261;54.090;13.382;2023-03-14T00:14:43;11.30;99.90
52321;DHT22;38261;54.090;13.382;2023-03-14T00:16:07;11.20;99.90
52321;DHT22;38261;54.090;13.382;2023-03-14T00:17:30;11.20;99.90
52321;DHT22;38261;54.090;13.382;2023-03-14T00:18:53;11.20;99.90
52321;DHT22;38261;54.090;13.382;2023-03-14T00:20:15;11.20;99.90
52321;DHT22;38261;54.090;13.382;2023-03-14T00:21:37;11.20;99.90
52321;DHT22;38261;54.090;13.382;2023-03-14T00:22:59;11.20;99.90
52321;DHT22;38261;54.090;13.382;2023-03-14T00:24:21;11.10;99.90
52321;DHT22;38261;54.090;13.382;2023-03-14T00:25:43;11.10;99.90
52321;DHT22;38261;54.090;13.382;2023-03-14T00:27:05;11.10;99.90
52321;DHT22;38261;54.090;13.382;2023-03-14T00:28:27;11.10;99.90
52321;DHT22;38261;54.090;13.382;2023-03-14T00:29:50;11.10;99.90
52321;DHT22;38261;54.090;13.382;2023-03-14T00:31:14;11.10;99.90
52321;DHT22;38261;54.090;13.382;2023-03-14T00:32:37;11.10;99.90
52321;DHT22;38261;54.090;13.382;2023-03-14T00:33:59;11.00;99.90
52321;DHT22;38261;54.090;13.382;2023-03-14T00:35:21;11.00;99.90
52321;DHT22;38261;54.090;13.382;2023-03-14T00:36:44;11.00;99.90
52321;DHT22;38261;54.090;13.382;2023-03-14T00:38:07;11.00;99.90
52321;DHT22;38261;54.090;13.382;2023-03-14T00:39:29;11.00;99.90
52321;DHT22;38261;54.090;13.382;2023-03-14T00:40:51;11.00;99.90
52321;DHT22;38261;54.090;13.382;2023-03-14T00:42:14;11.00;99.90
52321;DHT22;38261;54.090;13.382;2023-03-14T00:43:36;11.00;99.90
52321;DHT22;38261;54.090;13.382;2023-03-14T00:44:58;11.00;99.90
52321;DHT22;38261;54.090;13.382;2023-03-14T00:46:20;11.00;99.90
52321;DHT22;38261;54.090;13.382;2023-03-14T00:47:42;11.00;99.90
52321;DHT22;38261;54.090;13.382;2023-03-14T00:49:07;11.00;99.90
52321;DHT22;38261;54.090;13.382;2023-03-14T00:50:29;11.00;99.90
52321;DHT22;38261;54.090;13.382;2023-03-14T00:51:51;11.00;99.90
52321;DHT22;38261;54.090;13.382;2023-03-14T00:53:13;11.00;99.90
52321;DHT22;38261;54.090;13.382;2023-03-14T00:54:35;11.10;99.90
52321;DHT22;38261;54.090;13.382;2023-03-14T00:56:03;11.10;99.90
52321;DHT22;38261;54.090;13.382;2023-03-14T00:57:25;11.10;99.90
52321;DHT22;38261;54.090;13.382;2023-03-14T00:58:47;11.10;99.90
52321;DHT22;38261;54.090;13.382;2023-03-14T01:00:10;11.10;99.90
52321;DHT22;38261;54.090;13.382;2023-03-14T01:01:34;11.10;99.90
52321;DHT22;38261;54.090;13.382;2023-03-14T01:02:56;11.10;99.90
52321;DHT22;38261;54.090;13.382;2023-03-14T01:04:18;11.10;99.90
52321;DHT22;38261;54.090;13.382;2023-03-14T01:05:40;11.00;99.90
52321;DHT22;38261;54.090;13.382;2023-03-14T01:07:03;11.00;99.90
52321;DHT22;38261;54.090;13.382;2023-03-14T01:08:25;11.00;99.90
52321;DHT22;38261;54.090;13.382;2023-03-14T01:09:47;11.00;99.90
52321;DHT22;38261;54.090;13.382;2023-03-14T01:11:20;11.00;99.90
52321;DHT22;38261;54.090;13.382;2023-03-14T01:12:43;11.00;99.90
52321;DHT22;38261;54.090;13.382;2023-03-14T01:14:05;11.00;99.90
52321;DHT22;38261;54.090;13.382;2023-03-14T01:15:27;11.00;99.90
52321;DHT22;38261;54.090;13.382;2023-03-14T01:16:49;11.00;99.90
52321;DHT22;38261;54.090;13.382;2023-03-14T01:18:11;11.00;99.90
52321;DHT22;38261;54.090;13.382;2023-03-14T01:19:33;11.00;99.90
52321;DHT22;38261;54.090;13.382;2023-03-14T01:20:55;10.90;99.90
52321;DHT22;38261;54.090;13.382;2023-03-14T01:22:18;11.00;99.90
52321;DHT22;38261;54.090;13.382;2023-03-14T01:23:40;11.00;99.90
52321;DHT22;38261;54.090;13.382;2023-03-14T01:25:03;11.00;99.90
52321;DHT22;38261;54.090;13.382;2023-03-14T01:26:27;11.00;99.90
52321;DHT22;38261;54.090;13.382;2023-03-14T01:27:49;11.00;99.90
52321;DHT22;38261;54.090;13.382;2023-03-14T01:29:11;11.00;99.90
52321;DHT22;38261;54.090;13.382;2023-03-14T01:30:33;11.10;99.90
52321;DHT22;38261;54.090;13.382;2023-03-14T01:31:55;11.10;99.90
52321;DHT22;38261;54.090;13.382;2023-03-14T01:33:17;11.10;99.90
52321;DHT22;38261;54.090;13.382;2023-03-14T01:34:39;11.10;99.90
52321;DHT22;38261;54.090;13.382;2023-03-14T01:36:02;11.10;99.90
52321;DHT22;38261;54.090;13.382;2023-03-14T01:37:24;11.10;99.90
52321;DHT22;38261;54.090;13.382;2023-03-14T01:38:46;11.10;99.90
52321;DHT22;38261;54.090;13.382;2023-03-14T01:40:10;11.10;99.90
52321;DHT22;38261;54.090;13.382;2023-03-14T01:41:33;11.00;99.90
52321;DHT22;38261;54.090;13.382;2023-03-14T01:42:57;11.00;99.90
52321;DHT22;38261;54.090;13.382;2023-03-14T01:44:19;11.00;99.90
52321;DHT22;38261;54.090;13.382;2023-03-14T01:47:27;11.00;99.90
52321;DHT22;38261;54.090;13.382;2023-03-14T01:50:17;11.00;99.90
52321;DHT22;38261;54.090;13.382;2023-03-14T01:53:10;10.90;99.90
52321;DHT22;38261;54.090;13.382;2023-03-14T01:54:36;10.90;99.90
52321;DHT22;38261;54.090;13.382;2023-03-14T01:55:59;10.90;99.90
52321;DHT22;38261;54.090;13.382;2023-03-14T01:57:39;10.90;99.90
52321;DHT22;38261;54.090;13.382;2023-03-14T01:59:06;10.90;99.90
52321;DHT22;38261;54.090;13.382;2023-03-14T02:00:28;11.00;99.90
52321;DHT22;38261;54.090;13.382;2023-03-14T02:01:51;11.00;99.90
52321;DHT22;38261;54.090;13.382;2023-03-14T02:03:18;11.00;99.90
52321;DHT22;38261;54.090;13.382;2023-03-14T02:04:43;11.00;99.90
52321;DHT22;38261;54.090;13.382;2023-03-14T02:06:07;11.00;99.90
52321;DHT22;38261;54.090;13.382;2023-03-14T02:07:46;11.00;99.90
52321;DHT22;38261;54.090;13.382;2023-03-14T02:09:09;11.00;99.90
52321;DHT22;38261;54.090;13.382;2023-03-14T02:10:38;11.00;99.90
52321;DHT22;38261;54.090;13.382;2023-03-14T02:12:01;11.00;99.90
52321;DHT22;38261;54.090;13.382;2023-03-14T02:13:23;11.00;99.90
52321;DHT22;38261;54.090;13.382;2023-03-14T02:14:45;11.00;99.90
52321;DHT22;38261;54.090;13.382;2023-03-14T02:16:10;10.90;99.90
52321;DHT22;38261;54.090;13.382;2023-03-14T02:17:32;11.00;99.90
52321;DHT22;38261;54.090;13.382;2023-03-14T02:18:54;11.00;99.90
52321;DHT22;38261;54.090;13.382;2023-03-14T02:22:02;11.00;99.90
52321;DHT22;38261;54.090;13.382;2023-03-14T02:26:43;10.90;99.90
52321;DHT22;38261;54.090;13.382;2023-03-14T02:28:07;10.90;99.90
52321;DHT22;38261;54.090;13.382;2023-03-14T02:29:31;10.90;99.90
52321;DHT22;38261;54.090;13.382;2023-03-14T02:30:55;10.90;99.90
52321;DHT22;38261;54.090;13.382;2023-03-14T02:32:18;10.90;99.90
52321;DHT22;38261;54.090;13.382;2023-03-14T02:33:41;10.90;99.90
52321;DHT22;38261;54.090;13.382;2023-03-14T02:35:08;10.90;99.90
52321;DHT22;38261;54.090;13.382;2023-03-14T02:36:31;10.90;99.90
52321;DHT22;38261;54.090;13.382;2023-03-14T02:38:07;10.80;99.90
52321;DHT22;38261;54.090;13.382;2023-03-14T02:39:39;10.80;99.90
52321;DHT22;38261;54.090;13.382;2023-03-14T02:41:03;10.80;99.90
52321;DHT22;38261;54.090;13.382;2023-03-14T02:42:25;10.80;99.90
52321;DHT22;38261;54.090;13.382;2023-03-14T02:43:47;10.80;99.90
52321;DHT22;38261;54.090;13.382;2023-03-14T02:46:32;10.80;99.90
52321;DHT22;38261;54.090;13.382;2023-03-14T02:47:57;10.70;99.90
52321;DHT22;38261;54.090;13.382;2023-03-14T02:49:20;10.70;99.90
52321;DHT22;38261;54.090;13.382;2023-03-14T02:50:45;10.70;99.90
52321;DHT22;38261;54.090;13.382;2023-03-14T02:52:08;10.60;99.90
52321;DHT22;38261;54.090;13.382;2023-03-14T02:53:32;10.60;99.90
52321;DHT22;38261;54.090;13.382;2023-03-14T02:54:55;10.70;99.90
52321;DHT22;38261;54.090;13.382;2023-03-14T02:56:17;10.70;99.90
52321;DHT22;38261;54.090;13.382;2023-03-14T02:57:39;10.60;99.90
52321;DHT22;38261;54.090;13.382;2023-03-14T02:59:05;10.60;99.90
52321;DHT22;38261;54.090;13.382;2023-03-14T03:00:27;10.60;99.90
52321;DHT22;38261;54.090;13.382;2023-03-14T03:01:49;10.60;99.90
52321;DHT22;38261;54.090;13.382;2023-03-14T03:03:12;10.50;99.90
52321;DHT22;38261;54.090;13.382;2023-03-14T03:04:34;10.60;99.90
52321;DHT22;38261;54.090;13.382;2023-03-14T03:05:57;10.50;99.90
52321;DHT22;38261;54.090;13.382;2023-03-14T03:07:19;10.50;99.90
52321;DHT22;38261;54.090;13.382;2023-03-14T03:08:42;10.50;99.90
52321;DHT22;38261;54.090;13.382;2023-03-14T03:10:05;10.50;99.90
52321;DHT22;38261;54.090;13.382;2023-03-14T03:11:27;10.50;99.90
52321;DHT22;38261;54.090;13.382;2023-03-14T03:12:50;10.40;99.90
52321;DHT22;38261;54.090;13.382;2023-03-14T03:14:13;10.40;99.90
52321;DHT22;38261;54.090;13.382;2023-03-14T03:15:35;10.40;99.90
52321;DHT22;38261;54.090;13.382;2023-03-14T03:16:57;10.40;99.90
52321;DHT22;38261;54.090;13.382;2023-03-14T03:18:20;10.40;99.90
52321;DHT22;38261;54.090;13.382;2023-03-14T03:19:43;10.40;99.90
52321;DHT22;38261;54.090;13.382;2023-03-14T03:21:05;10.30;99.90
52321;DHT22;38261;54.090;13.382;2023-03-14T03:22:29;10.30;99.90
52321;DHT22;38261;54.090;13.382;2023-03-14T03:23:51;10.30;99.90
52321;DHT22;38261;54.090;13.382;2023-03-14T03:25:14;10.30;99.90
52321;DHT22;38261;54.090;13.382;2023-03-14T03:26:36;10.30;99.90
52321;DHT22;38261;54.090;13.382;2023-03-14T03:27:59;10.30;99.90
52321;DHT22;38261;54.090;13.382;2023-03-14T03:29:21;10.30;99.90
52321;DHT22;38261;54.090;13.382;2023-03-14T03:30:44;10.30;99.90
52321;DHT22;38261;54.090;13.382;2023-03-14T03:32:06;10.30;99.90
52321;DHT22;38261;54.090;13.382;2023-03-14T03:33:28;10.30;99.90
52321;DHT22;38261;54.090;13.382;2023-03-14T03:34:50;10.40;99.90
52321;DHT22;38261;54.090;13.382;2023-03-14T03:36:12;10.40;99.90
52321;DHT22;38261;54.090;13.382;2023-03-14T03:37:35;10.40;99.90
52321;DHT22;38261;54.090;13.382;2023-03-14T03:38:57;10.30;99.90
52321;DHT22;38261;54.090;13.382;2023-03-14T03:40:19;10.30;99.90
52321;DHT22;38261;54.090;13.382;2023-03-14T03:41:41;10.30;99.90
52321;DHT22;38261;54.090;13.382;2023-03-14T03:43:04;10.30;99.90
52321;DHT22;38261;54.090;13.382;2023-03-14T03:44:26;10.30;99.90
52321;DHT22;38261;54.090;13.382;2023-03-14T03:45:48;10.20;99.90
52321;DHT22;38261;54.090;13.382;2023-03-14T03:47:10;10.30;99.90
52321;DHT22;38261;54.090;13.382;2023-03-14T03:48:32;10.20;99.90
52321;DHT22;38261;54.090;13.382;2023-03-14T03:49:55;10.20;99.90
52321;DHT22;38261;54.090;13.382;2023-03-14T03:51:17;10.30;99.90
52321;DHT22;38261;54.090;13.382;2023-03-14T03:52:39;10.30;99.90
52321;DHT22;38261;54.090;13.382;2023-03-14T03:54:01;10.30;99.90
52321;DHT22;38261;54.090;13.382;2023-03-14T03:55:23;10.30;99.90
52321;DHT22;38261;54.090;13.382;2023-03-14T03:56:45;10.30;99.90
52321;DHT22;38261;54.090;13.382;2023-03-14T03:58:07;10.20;99.90
52321;DHT22;38261;54.090;13.382;2023-03-14T03:59:29;10.30;99.90
52321;DHT22;38261;54.090;13.382;2023-03-14T04:00:51;10.30;99.90
52321;DHT22;38261;54.090;13.382;2023-03-14T04:02:13;10.30;99.90
52321;DHT22;38261;54.090;13.382;2023-03-14T04:03:36;10.20;99.90
52321;DHT22;38261;54.090;13.382;2023-03-14T04:05:01;10.30;99.90
52321;DHT22;38261;54.090;13.382;2023-03-14T04:06:23;10.30;99.90
52321;DHT22;38261;54.090;13.382;2023-03-14T04:07:45;10.30;99.90
52321;DHT22;38261;54.090;13.382;2023-03-14T04:09:09;10.30;99.90
52321;DHT22;38261;54.090;13.382;2023-03-14T04:10:35;10.30;99.90
52321;DHT22;38261;54.090;13.382;2023-03-14T04:11:57;10.30;99.90
52321;DHT22;38261;54.090;13.382;2023-03-14T04:13:19;10.30;99.90
52321;DHT22;38261;54.090;13.382;2023-03-14T04:14:41;10.30;99.90
52321;DHT22;38261;54.090;13.382;2023-03-14T04:16:08;10.30;99.90
52321;DHT22;38261;54.090;13.382;2023-03-14T04:17:31;10.30;99.90
52321;DHT22;38261;54.090;13.382;2023-03-14T04:18:53;10.30;99.90
52321;DHT22;38261;54.090;13.382;2023-03-14T04:20:16;10.30;99.90
52321;DHT22;38261;54.090;13.382;2023-03-14T04:21:38;10.30;99.90
52321;DHT22;38261;54.090;13.382;2023-03-14T04:23:06;10.30;99.90
52321;DHT22;38261;54.090;13.382;2023-03-14T04:24:28;10.30;99.90
52321;DHT22;38261;54.090;13.382;2023-03-14T04:25:52;10.30;99.90
52321;DHT22;38261;54.090;13.382;2023-03-14T04:27:14;10.30;99.90
52321;DHT22;38261;54.090;13.382;2023-03-14T04:28:36;10.30;99.90
52321;DHT22;38261;54.090;13.382;2023-03-14T04:29:58;10.30;99.90
52321;DHT22;38261;54.090;13.382;2023-03-14T04:31:21;10.30;99.90
52321;DHT22;38261;54.090;13.382;2023-03-14T04:32:43;10.30;99.90
52321;DHT22;38261;54.090;13.382;2023-03-14T04:34:06;10.30;99.90
52321;DHT22;38261;54.090;13.382;2023-03-14T04:35:31;10.30;99.90
52321;DHT22;38261;54.090;13.382;2023-03-14T04:36:53;10.30;99.90
52321;DHT22;38261;54.090;13.382;2023-03-14T04:38:16;10.30;99.90
52321;DHT22;38261;54.090;13.382;2023-03-14T04:39:38;10.30;99.90
52321;DHT22;38261;54.090;13.382;2023-03-14T04:41:00;10.20;99.90
52321;DHT22;38261;54.090;13.382;2023-03-14T04:42:22;10.20;99.90
52321;DHT22;38261;54.090;13.382;2023-03-14T04:43:45;10.20;99.90
52321;DHT22;38261;54.090;13.382;2023-03-14T04:45:08;10.30;99.90
52321;DHT22;38261;54.090;13.382;2023-03-14T04:46:30;10.20;99.90
52321;DHT22;38261;54.090;13.382;2023-03-14T04:47:52;10.20;99.90
52321;DHT22;38261;54.090;13.382;2023-03-14T04:49:14;10.20;99.90
52321;DHT22;38261;54.090;13.382;2023-03-14T04:50:36;10.20;99.90
52321;DHT22;38261;54.090;13.382;2023-03-14T04:51:58;10.20;99.90
52321;DHT22;38261;54.090;13.382;2023-03-14T04:53:21;10.20;99.90
52321;DHT22;38261;54.090;13.382;2023-03-14T04:54:43;10.20;99.90
52321;DHT22;38261;54.090;13.382;2023-03-14T04:56:05;10.20;99.90
52321;DHT22;38261;54.090;13.382;2023-03-14T04:57:28;10.20;99.90
52321;DHT22;38261;54.090;13.382;2023-03-14T04:58:50;10.20;99.90
52321;DHT22;38261;54.090;13.382;2023-03-14T05:00:12;10.20;99.90
52321;DHT22;38261;54.090;13.382;2023-03-14T05:01:35;10.20;99.90
52321;DHT22;38261;54.090;13.382;2023-03-14T05:02:57;10.20;99.90
52321;DHT22;38261;54.090;13.382;2023-03-14T05:04:19;10.20;99.90
52321;DHT22;38261;54.090;13.382;2023-03-14T05:05:42;10.20;99.90
52321;DHT22;38261;54.090;13.382;2023-03-14T05:07:04;10.20;99.90
52321;DHT22;38261;54.090;13.382;2023-03-14T05:08:26;10.20;99.90
52321;DHT22;38261;54.090;13.382;2023-03-14T05:09:48;10.20;99.90
52321;DHT22;38261;54.090;13.382;2023-03-14T05:11:10;10.20;99.90
52321;DHT22;38261;54.090;13.382;2023-03-14T05:12:33;10.20;99.90
52321;DHT22;38261;54.090;13.382;2023-03-14T05:13:55;10.20;99.90
52321;DHT22;38261;54.090;13.382;2023-03-14T05:15:17;10.20;99.90
52321;DHT22;38261;54.090;13.382;2023-03-14T05:16:39;10.20;99.90
52321;DHT22;38261;54.090;13.382;2023-03-14T05:18:01;10.20;99.90
52321;DHT22;38261;54.090;13.382;2023-03-14T05:19:23;10.20;99.90
52321;DHT22;38261;54.090;13.382;2023-03-14T05:20:45;10.30;99.90
52321;DHT22;38261;54.090;13.382;2023-03-14T05:22:08;10.20;99.90
52321;DHT22;38261;54.090;13.382;2023-03-14T05:23:30;10.30;99.90
52321;DHT22;38261;54.090;13.382;2023-03-14T05:24:52;10.30;99.90
52321;DHT22;38261;54.090;13.382;2023-03-14T05:26:18;10.30;99.90
52321;DHT22;38261;54.090;13.382;2023-03-14T05:27:40;10.30;99.90
52321;DHT22;38261;54.090;13.382;2023-03-14T05:29:02;10.30;99.90
52321;DHT22;38261;54.090;13.382;2023-03-14T05:30:24;10.30;99.90
52321;DHT22;38261;54.090;13.382;2023-03-14T05:31:47;10.30;99.90
52321;DHT22;38261;54.090;13.382;2023-03-14T05:33:09;10.30;99.90
52321;DHT22;38261;54.090;13.382;2023-03-14T05:34:31;10.30;99.90
52321;DHT22;38261;54.090;13.382;2023-03-14T05:35:53;10.30;99.90
52321;DHT22;38261;54.090;13.382;2023-03-14T05:37:15;10.30;99.90
52321;DHT22;38261;54.090;13.382;2023-03-14T05:38:39;10.30;99.90
52321;DHT22;38261;54.090;13.382;2023-03-14T05:40:02;10.30;99.90
52321;DHT22;38261;54.090;13.382;2023-03-14T05:41:25;10.30;99.90
52321;DHT22;38261;54.090;13.382;2023-03-14T05:42:47;10.30;99.90
52321;DHT22;38261;54.090;13.382;2023-03-14T05:44:09;10.30;99.90
52321;DHT22;38261;54.090;13.382;2023-03-14T05:45:31;10.30;99.90
52321;DHT22;38261;54.090;13.382;2023-03-14T05:46:56;10.30;99.90
52321;DHT22;38261;54.090;13.382;2023-03-14T05:48:18;10.30;99.90
52321;DHT22;38261;54.090;13.382;2023-03-14T05:49:40;10.40;99.90
52321;DHT22;38261;54.090;13.382;2023-03-14T05:51:02;10.40;99.90
52321;DHT22;38261;54.090;13.382;2023-03-14T05:52:24;10.30;99.90
52321;DHT22;38261;54.090;13.382;2023-03-14T05:53:46;10.40;99.90
52321;DHT22;38261;54.090;13.382;2023-03-14T05:55:08;10.40;99.90
52321;DHT22;38261;54.090;13.382;2023-03-14T05:56:31;10.40;99.90
52321;DHT22;38261;54.090;13.382;2023-03-14T05:57:54;10.40;99.90
52321;DHT22;38261;54.090;13.382;2023-03-14T05:59:16;10.40;99.90
52321;DHT22;38261;54.090;13.382;2023-03-14T06:00:38;10.50;99.90
52321;DHT22;38261;54.090;13.382;2023-03-14T06:02:00;10.50;99.90
52321;DHT22;38261;54.090;13.382;2023-03-14T06:03:22;10.50;99.90
52321;DHT22;38261;54.090;13.382;2023-03-14T06:04:44;10.50;99.90
52321;DHT22;38261;54.090;13.382;2023-03-14T06:06:07;10.60;99.90
52321;DHT22;38261;54.090;13.382;2023-03-14T06:07:29;10.60;99.90
52321;DHT22;38261;54.090;13.382;2023-03-14T06:08:51;10.60;99.90
52321;DHT22;38261;54.090;13.382;2023-03-14T06:10:13;10.60;99.90
52321;DHT22;38261;54.090;13.382;2023-03-14T06:11:35;10.70;99.90
52321;DHT22;38261;54.090;13.382;2023-03-14T06:12:57;10.70;99.90
52321;DHT22;38261;54.090;13.382;2023-03-14T06:14:19;10.70;99.90
52321;DHT22;38261;54.090;13.382;2023-03-14T06:15:43;10.70;99.90
52321;DHT22;38261;54.090;13.382;2023-03-14T06:17:05;10.70;99.90
52321;DHT22;38261;54.090;13.382;2023-03-14T06:18:27;10.70;99.90
52321;DHT22;38261;54.090;13.382;2023-03-14T06:19:49;10.80;99.90
52321;DHT22;38261;54.090;13.382;2023-03-14T06:21:11;10.80;99.90
52321;DHT22;38261;54.090;13.382;2023-03-14T06:22:33;10.80;99.90
52321;DHT22;38261;54.090;13.382;2023-03-14T06:23:55;10.90;99.90
52321;DHT22;38261;54.090;13.382;2023-03-14T06:25:17;10.80;99.90
52321;DHT22;38261;54.090;13.382;2023-03-14T06:26:40;10.90;99.90
52321;DHT22;38261;54.090;13.382;2023-03-14T06:28:02;10.90;99.90
52321;DHT22;38261;54.090;13.382;2023-03-14T06:29:24;10.90;99.90
52321;DHT22;38261;54.090;13.382;2023-03-14T06:30:46;10.90;99.90
52321;DHT22;38261;54.090;13.382;2023-03-14T06:32:08;10.90;99.90
52321;DHT22;38261;54.090;13.382;2023-03-14T06:33:31;11.00;99.90
52321;DHT22;38261;54.090;13.382;2023-03-14T06:34:53;11.00;99.90
52321;DHT22;38261;54.090;13.382;2023-03-14T06:36:15;11.00;99.90
52321;DHT22;38261;54.090;13.382;2023-03-14T06:37:38;11.00;99.90
52321;DHT22;38261;54.090;13.382;2023-03-14T06:39:00;11.00;99.90
52321;DHT22;38261;54.090;13.382;2023-03-14T06:40:22;11.10;99.90
52321;DHT22;38261;54.090;13.382;2023-03-14T06:41:45;11.10;99.90
52321;DHT22;38261;54.090;13.382;2023-03-14T06:43:07;11.20;99.90
52321;DHT22;38261;54.090;13.382;2023-03-14T06:44:29;11.20;99.90
52321;DHT22;38261;54.090;13.382;2023-03-14T06:45:51;11.20;99.90
52321;DHT22;38261;54.090;13.382;2023-03-14T06:47:13;11.20;99.90
52321;DHT22;38261;54.090;13.382;2023-03-14T06:48:35;11.20;99.90
52321;DHT22;38261;54.090;13.382;2023-03-14T06:49:58;11.30;99.90
52321;DHT22;38261;54.090;13.382;2023-03-14T06:51:20;11.30;99.90
52321;DHT22;38261;54.090;13.382;2023-03-14T06:52:42;11.40;99.90
52321;DHT22;38261;54.090;13.382;2023-03-14T06:54:09;11.40;99.90
52321;DHT22;38261;54.090;13.382;2023-03-14T06:55:32;11.50;99.90
52321;DHT22;38261;54.090;13.382;2023-03-14T06:56:54;11.50;99.90
52321;DHT22;38261;54.090;13.382;2023-03-14T06:58:16;11.50;99.90
52321;DHT22;38261;54.090;13.382;2023-03-14T06:59:38;11.40;99.90
52321;DHT22;38261;54.090;13.382;2023-03-14T07:01:00;11.40;99.90
52321;DHT22;38261;54.090;13.382;2023-03-14T07:02:23;11.40;99.90
52321;DHT22;38261;54.090;13.382;2023-03-14T07:04:02;11.40;99.90
52321;DHT22;38261;54.090;13.382;2023-03-14T07:05:25;11.40;99.90
52321;DHT22;38261;54.090;13.382;2023-03-14T07:06:47;11.30;99.90
52321;DHT22;38261;54.090;13.382;2023-03-14T07:08:09;11.30;99.90
52321;DHT22;38261;54.090;13.382;2023-03-14T07:09:32;11.30;99.90
52321;DHT22;38261;54.090;13.382;2023-03-14T07:10:56;11.20;99.90
52321;DHT22;38261;54.090;13.382;2023-03-14T07:12:18;11.20;99.90
52321;DHT22;38261;54.090;13.382;2023-03-14T07:13:41;11.20;99.90
52321;DHT22;38261;54.090;13.382;2023-03-14T07:15:03;11.20;99.90
52321;DHT22;38261;54.090;13.382;2023-03-14T07:16:40;11.20;99.90
52321;DHT22;38261;54.090;13.382;2023-03-14T07:18:02;11.30;99.90
52321;DHT22;38261;54.090;13.382;2023-03-14T07:19:25;11.30;99.90
52321;DHT22;38261;54.090;13.382;2023-03-14T07:20:47;11.40;99.90
52321;DHT22;38261;54.090;13.382;2023-03-14T07:22:12;11.50;99.90
52321;DHT22;38261;54.090;13.382;2023-03-14T07:23:34;11.60;99.90
52321;DHT22;38261;54.090;13.382;2023-03-14T07:24:56;11.70;99.90
52321;DHT22;38261;54.090;13.382;2023-03-14T07:26:19;11.80;99.90
52321;DHT22;38261;54.090;13.382;2023-03-14T07:27:43;11.90;99.90
52321;DHT22;38261;54.090;13.382;2023-03-14T07:29:07;12.00;99.90
52321;DHT22;38261;54.090;13.382;2023-03-14T07:30:29;12.10;99.90
52321;DHT22;38261;54.090;13.382;2023-03-14T07:31:51;12.10;99.90
52321;DHT22;38261;54.090;13.382;2023-03-14T07:33:13;12.20;99.90
52321;DHT22;38261;54.090;13.382;2023-03-14T07:34:35;12.20;99.90
52321;DHT22;38261;54.090;13.382;2023-03-14T07:35:57;12.20;99.90
52321;DHT22;38261;54.090;13.382;2023-03-14T07:37:20;12.30;99.90
52321;DHT22;38261;54.090;13.382;2023-03-14T07:38:42;12.30;99.90
52321;DHT22;38261;54.090;13.382;2023-03-14T07:40:05;12.30;99.90
52321;DHT22;38261;54.090;13.382;2023-03-14T07:41:28;12.30;99.90
52321;DHT22;38261;54.090;13.382;2023-03-14T07:42:50;12.40;99.90
52321;DHT22;38261;54.090;13.382;2023-03-14T07:44:16;12.40;99.90
52321;DHT22;38261;54.090;13.382;2023-03-14T07:45:38;12.40;99.90
52321;DHT22;38261;54.090;13.382;2023-03-14T07:47:04;12.40;99.90
52321;DHT22;38261;54.090;13.382;2023-03-14T07:48:26;12.50;99.90
52321;DHT22;38261;54.090;13.382;2023-03-14T07:49:49;12.50;99.90
52321;DHT22;38261;54.090;13.382;2023-03-14T07:51:11;12.60;99.90
52321;DHT22;38261;54.090;13.382;2023-03-14T07:52:33;12.60;99.90
52321;DHT22;38261;54.090;13.382;2023-03-14T07:53:55;12.70;99.90
52321;DHT22;38261;54.090;13.382;2023-03-14T07:55:17;12.80;99.90
52321;DHT22;38261;54.090;13.382;2023-03-14T07:56:40;12.90;99.90
52321;DHT22;38261;54.090;13.382;2023-03-14T07:58:02;13.00;99.90
52321;DHT22;38261;54.090;13.382;2023-03-14T07:59:24;13.10;99.90
52321;DHT22;38261;54.090;13.382;2023-03-14T08:00:46;13.10;99.90
52321;DHT22;38261;54.090;13.382;2023-03-14T08:02:12;13.20;99.90
52321;DHT22;38261;54.090;13.382;2023-03-14T08:03:34;13.30;99.90
52321;DHT22;38261;54.090;13.382;2023-03-14T08:04:56;13.40;99.90
52321;DHT22;38261;54.090;13.382;2023-03-14T08:06:19;13.70;99.90
52321;DHT22;38261;54.090;13.382;2023-03-14T08:07:41;13.90;99.90
52321;DHT22;38261;54.090;13.382;2023-03-14T08:09:04;14.00;99.90
52321;DHT22;38261;54.090;13.382;2023-03-14T08:10:26;14.10;99.90
52321;DHT22;38261;54.090;13.382;2023-03-14T08:11:49;14.20;99.90
52321;DHT22;38261;54.090;13.382;2023-03-14T08:14:34;14.60;99.90
52321;DHT22;38261;54.090;13.382;2023-03-14T08:15:56;14.60;99.90
52321;DHT22;38261;54.090;13.382;2023-03-14T08:17:18;14.60;99.90
52321;DHT22;38261;54.090;13.382;2023-03-14T08:18:40;14.50;99.90
52321;DHT22;38261;54.090;13.382;2023-03-14T08:20:03;14.40;99.90
52321;DHT22;38261;54.090;13.382;2023-03-14T08:21:28;14.30;99.90
52321;DHT22;38261;54.090;13.382;2023-03-14T08:22:50;14.20;99.90
52321;DHT22;38261;54.090;13.382;2023-03-14T08:24:13;14.20;99.90
52321;DHT22;38261;54.090;13.382;2023-03-14T08:25:35;14.10;99.90
52321;DHT22;38261;54.090;13.382;2023-03-14T08:26:57;14.20;99.90
52321;DHT22;38261;54.090;13.382;2023-03-14T08:28:19;14.20;99.90
52321;DHT22;38261;54.090;13.382;2023-03-14T08:29:41;14.20;99.90
52321;DHT22;38261;54.090;13.382;2023-03-14T08:31:04;14.30;99.90
52321;DHT22;38261;54.090;13.382;2023-03-14T08:32:26;14.40;99.90
52321;DHT22;38261;54.090;13.382;2023-03-14T08:33:48;14.40;99.90
52321;DHT22;38261;54.090;13.382;2023-03-14T08:35:14;14.40;99.90
52321;DHT22;38261;54.090;13.382;2023-03-14T08:36:36;14.40;99.90
52321;DHT22;38261;54.090;13.382;2023-03-14T08:37:59;14.30;99.90
52321;DHT22;38261;54.090;13.382;2023-03-14T08:39:21;14.30;99.90
52321;DHT22;38261;54.090;13.382;2023-03-14T08:40:43;14.30;99.90
52321;DHT22;38261;54.090;13.382;2023-03-14T08:42:05;14.30;99.90
52321;DHT22;38261;54.090;13.382;2023-03-14T08:43:28;14.30;99.90
52321;DHT22;38261;54.090;13.382;2023-03-14T08:44:51;14.40;99.90
52321;DHT22;38261;54.090;13.382;2023-03-14T08:46:13;14.40;99.90
52321;DHT22;38261;54.090;13.382;2023-03-14T08:47:36;14.40;99.90